Time;durP1;ratioP1;P1;durP2;ratioP2;P2;SDS_P1;SDS_P2;PMS_P1;PMS_P2;Temp;Humidity;BMP_temperature;BMP_pressure;BME280_temperature;BME280_humidity;BME280_pressure;Samples;Min_cycle;Max_cycle;Signal;HPM_P1;HPM_P2
2021/08/28 00:01:07;;;;;;;1.15;1.05;;;15.70;99.90;;;;;;5068285;28;20003;-81
2021/08/28 00:03:32;;;;;;;;;;;15.60;99.90;;;;;;5050120;28;20043;-78
2021/08/28 00:05:58;;;;;;;3.92;2.22;;;15.60;99.90;;;;;;5073367;28;19920;-79
2021/08/28 00:08:24;;;;;;;;;;;15.60;99.90;;;;;;5064070;28;20389;-80
2021/08/28 00:10:49;;;;;;;7.18;1.90;;;15.60;99.90;;;;;;5048052;28;19921;-80
2021/08/28 00:13:15;;;;;;;2.55;1.20;;;15.50;99.90;;;;;;5047986;28;20128;-79
2021/08/28 00:15:41;;;;;;;2.85;2.13;;;15.50;99.90;;;;;;5085386;28;20051;-80
2021/08/28 00:18:07;;;;;;;;;;;15.50;99.90;;;;;;5062035;28;20119;-78
2021/08/28 00:20:34;;;;;;;1.67;1.38;;;15.50;99.90;;;;;;5056503;28;19916;-80
2021/08/28 00:23:05;;;;;;;1.10;1.00;;;15.50;99.90;;;;;;5034633;28;20470;-79
2021/08/28 00:25:31;;;;;;;1.60;1.33;;;15.50;99.90;;;;;;5031352;28;20045;-81
2021/08/28 00:27:56;;;;;;;3.67;1.73;;;15.50;99.90;;;;;;5095889;28;20102;-80
2021/08/28 00:30:22;;;;;;;;;;;15.50;99.90;;;;;;5055473;28;20044;-82
2021/08/28 00:32:48;;;;;;;2.63;1.85;;;15.60;99.90;;;;;;5060460;28;19921;-79
2021/08/28 00:35:13;;;;;;;;;;;15.60;99.90;;;;;;5053205;28;20104;-80
2021/08/28 00:37:39;;;;;;;3.40;2.08;;;15.60;99.90;;;;;;5068423;28;20019;-83
2021/08/28 00:40:05;;;;;;;;;;;15.60;99.90;;;;;;5065028;28;20508;-81
2021/08/28 00:42:31;;;;;;;1.60;1.25;;;15.60;99.90;;;;;;5049009;28;19924;-78
2021/08/28 00:44:56;;;;;;;3.28;1.35;;;15.60;99.90;;;;;;5050115;28;20045;-78
2021/08/28 00:47:22;;;;;;;;;;;15.60;99.90;;;;;;5056309;28;20573;-79
2021/08/28 00:49:49;;;;;;;1.48;1.38;;;15.60;99.90;;;;;;5099426;28;20365;-80
2021/08/28 00:52:17;;;;;;;1.77;1.25;;;15.60;99.90;;;;;;5058770;28;20536;-81
2021/08/28 00:54:43;;;;;;;1.55;1.45;;;15.50;99.90;;;;;;5035181;28;20063;-81
2021/08/28 00:57:12;;;;;;;;;;;15.40;99.90;;;;;;5043445;28;20037;-80
2021/08/28 00:59:40;;;;;;;2.80;1.63;;;15.40;99.90;;;;;;5044696;28;19962;-80
2021/08/28 01:02:07;;;;;;;1.92;1.20;;;15.40;99.90;;;;;;5039090;28;20107;-80
2021/08/28 01:04:55;;;;;;;1.55;1.15;;;15.40;99.90;;;;;;5054344;28;20044;-80
2021/08/28 01:07:28;;;;;;;2.17;1.38;;;15.30;99.90;;;;;;5036846;28;20064;-79
2021/08/28 01:09:57;;;;;;;5.03;1.45;;;15.30;99.90;;;;;;5056338;28;20041;-79
2021/08/28 01:12:35;;;;;;;2.88;1.70;;;15.30;99.90;;;;;;5058032;28;20124;-79
2021/08/28 01:15:10;;;;;;;2.92;1.23;;;15.20;99.90;;;;;;5097756;28;20078;-82
2021/08/28 01:17:39;;;;;;;0.93;0.90;;;15.20;99.90;;;;;;5046174;28;20461;-81
2021/08/28 01:20:50;;;;;;;1.27;1.08;;;15.20;99.90;;;;;;5061937;28;20029;-80
2021/08/28 01:23:18;;;;;;;0.70;0.65;;;15.20;99.90;;;;;;5061310;28;20487;-83
2021/08/28 01:25:44;;;;;;;1.65;1.33;;;15.20;99.90;;;;;;5039285;28;20045;-82
2021/08/28 01:28:12;;;;;;;7.80;1.92;;;15.20;99.90;;;;;;5048575;28;20111;-79
2021/08/28 01:30:43;;;;;;;1.25;0.90;;;15.20;99.90;;;;;;5040708;28;20053;-80
2021/08/28 01:33:11;;;;;;;2.13;1.92;;;15.20;99.90;;;;;;5025915;28;20089;-82
2021/08/28 01:35:37;;;;;;;2.53;1.90;;;15.20;99.90;;;;;;5033743;28;20076;-80
2021/08/28 01:38:04;;;;;;;2.13;1.65;;;15.20;99.90;;;;;;5055449;28;20104;-80
2021/08/28 01:40:32;;;;;;;1.58;1.48;;;15.10;99.90;;;;;;5055886;28;20072;-80
2021/08/28 01:42:58;;;;;;;1.50;1.05;;;15.10;99.90;;;;;;5065393;28;20419;-80
2021/08/28 01:45:26;;;;;;;2.17;1.65;;;15.10;99.90;;;;;;5025914;28;20075;-83
2021/08/28 01:47:53;;;;;;;1.95;1.45;;;15.00;99.90;;;;;;5017299;28;20037;-81
2021/08/28 01:50:21;;;;;;;3.42;1.70;;;15.10;99.90;;;;;;5052497;28;20044;-80
2021/08/28 01:52:49;;;;;;;1.98;1.77;;;15.10;99.90;;;;;;5053849;28;20128;-83
2021/08/28 01:55:15;;;;;;;1.38;1.08;;;15.10;99.90;;;;;;5050557;28;20126;-82
2021/08/28 01:57:41;;;;;;;;;;;15.10;99.90;;;;;;5032189;28;20117;-81
2021/08/28 02:00:07;;;;;;;1.93;1.20;;;15.10;99.90;;;;;;5077816;28;19948;-79
2021/08/28 02:02:33;;;;;;;4.05;1.75;;;15.20;99.90;;;;;;5037479;28;20037;-79
2021/08/28 02:05:00;;;;;;;3.90;2.08;;;15.20;99.90;;;;;;5058176;28;20094;-84
2021/08/28 02:07:44;;;;;;;2.55;1.30;;;15.20;99.90;;;;;;5044916;28;20044;-80
2021/08/28 02:10:28;;;;;;;1.95;1.15;;;15.20;99.90;;;;;;5046257;28;20048;-81
2021/08/28 02:12:58;;;;;;;1.83;1.52;;;15.20;99.90;;;;;;5026768;28;20120;-81
2021/08/28 02:15:34;;;;;;;9.77;1.77;;;15.20;99.90;;;;;;5075387;28;20049;-80
2021/08/28 02:18:23;;;;;;;3.65;1.92;;;15.20;99.90;;;;;;5063589;28;20036;-82
2021/08/28 02:20:53;;;;;;;2.22;1.33;;;15.30;99.90;;;;;;5058430;28;20056;-78
2021/08/28 02:23:59;;;;;;;2.22;1.65;;;15.30;99.90;;;;;;5074699;28;20049;-81
2021/08/28 02:26:35;;;;;;;1.92;1.42;;;15.90;99.90;;;;;;5029168;28;20053;-79
2021/08/28 02:29:04;;;;;;;3.53;1.67;;;15.30;99.90;;;;;;5032890;28;20135;-80
2021/08/28 02:31:36;;;;;;;12.48;1.88;;;15.30;99.90;;;;;;5052552;28;20032;-82
2021/08/28 02:34:04;;;;;;;3.97;1.60;;;15.40;99.90;;;;;;5063317;28;20117;-80
2021/08/28 02:36:30;;;;;;;2.20;1.83;;;15.40;99.90;;;;;;5037615;28;20053;-83
2021/08/28 02:38:57;;;;;;;3.70;2.17;;;15.40;99.90;;;;;;5031860;28;20033;-80
2021/08/28 02:41:26;;;;;;;1.67;1.23;;;15.40;99.90;;;;;;5073006;28;20433;-82
2021/08/28 02:43:52;;;;;;;3.05;2.20;;;15.40;99.90;;;;;;5062627;28;20478;-81
2021/08/28 02:46:19;;;;;;;1.27;1.17;;;15.40;99.90;;;;;;5040612;28;20041;-82
2021/08/28 02:48:46;;;;;;;2.63;2.15;;;15.40;99.90;;;;;;5073295;28;20478;-80
2021/08/28 02:51:12;;;;;;;3.72;2.00;;;15.30;99.90;;;;;;5040104;28;20080;-82
2021/08/28 02:53:45;;;;;;;2.58;1.83;;;15.30;99.90;;;;;;5046254;28;20056;-78
2021/08/28 02:56:22;;;;;;;2.22;1.77;;;15.20;99.90;;;;;;5046793;28;20052;-82
2021/08/28 02:58:48;;;;;;;4.47;1.98;;;15.20;99.90;;;;;;5035863;28;20463;-78
2021/08/28 03:01:14;;;;;;;5.32;2.10;;;15.20;99.90;;;;;;5052483;28;20487;-78
2021/08/28 03:03:41;;;;;;;;;;;15.20;99.90;;;;;;5035615;28;20043;-81
2021/08/28 03:06:08;;;;;;;2.42;1.85;;;15.20;99.90;;;;;;5068615;28;19923;-77
2021/08/28 03:08:35;;;;;;;2.90;1.60;;;15.20;99.90;;;;;;5033031;28;20056;-79
2021/08/28 03:11:01;;;;;;;3.80;2.10;;;15.20;99.90;;;;;;5036665;28;20437;-80
2021/08/28 03:13:28;;;;;;;3.88;1.60;;;15.20;99.90;;;;;;5045257;28;20044;-81
2021/08/28 03:15:55;;;;;;;5.47;2.42;;;15.30;99.90;;;;;;5046270;28;20072;-80
2021/08/28 03:18:25;;;;;;;5.53;3.00;;;15.30;99.90;;;;;;5050067;28;20047;-79
2021/08/28 03:20:54;;;;;;;3.72;2.17;;;15.40;99.90;;;;;;5039974;28;20048;-79
2021/08/28 03:23:23;;;;;;;5.47;1.30;;;15.40;99.90;;;;;;5050645;28;20037;-77
2021/08/28 03:25:49;;;;;;;4.20;2.30;;;15.40;99.90;;;;;;5052914;28;20510;-81
2021/08/28 03:28:16;;;;;;;4.50;1.88;;;15.30;99.90;;;;;;5053482;28;20041;-82
2021/08/28 03:30:47;;;;;;;2.60;1.73;;;15.30;99.90;;;;;;5056757;28;20037;-79
2021/08/28 03:33:16;;;;;;;2.45;2.20;;;15.20;99.90;;;;;;5061213;28;20063;-82
2021/08/28 03:35:44;;;;;;;1.92;1.63;;;15.20;99.90;;;;;;5032426;28;20053;-80
2021/08/28 03:38:10;;;;;;;2.15;1.52;;;15.20;99.90;;;;;;5051094;28;20422;-81
2021/08/28 03:40:38;;;;;;;3.47;1.65;;;15.20;99.90;;;;;;5061645;28;20040;-81
2021/08/28 03:43:04;;;;;;;3.08;2.40;;;15.20;99.90;;;;;;5047529;28;20029;-82
2021/08/28 03:45:30;;;;;;;2.67;1.55;;;15.20;99.90;;;;;;5035980;28;20043;-82
2021/08/28 03:47:57;;;;;;;4.22;1.85;;;15.20;99.90;;;;;;5049484;28;20049;-80
2021/08/28 03:50:23;;;;;;;4.80;2.17;;;15.20;99.90;;;;;;5052464;28;20419;-82
2021/08/28 03:52:49;;;;;;;3.63;1.90;;;15.20;99.90;;;;;;5032649;28;20049;-82
2021/08/28 03:55:15;;;;;;;2.95;1.95;;;15.30;99.90;;;;;;5034522;28;20049;-81
2021/08/28 03:57:41;;;;;;;1.48;1.15;;;15.30;99.90;;;;;;5035039;28;20065;-83
2021/08/28 04:00:10;;;;;;;2.38;1.70;;;15.30;99.90;;;;;;5031822;28;20053;-81
2021/08/28 04:02:36;;;;;;;4.90;2.10;;;15.30;99.90;;;;;;5062201;28;20117;-82
2021/08/28 04:05:02;;;;;;;5.18;2.22;;;15.30;99.90;;;;;;5035154;28;20125;-81
2021/08/28 04:07:28;;;;;;;3.60;2.65;;;15.30;99.90;;;;;;5051628;28;20069;-80
2021/08/28 04:09:53;;;;;;;;;;;15.20;99.90;;;;;;5060729;28;20037;-80
2021/08/28 04:12:19;;;;;;;2.25;1.70;;;15.20;99.90;;;;;;5092646;28;19916;-82
2021/08/28 04:14:44;;;;;;;7.95;2.15;;;15.20;99.90;;;;;;5067135;28;20045;-81
2021/08/28 04:17:10;;;;;;;;;;;15.20;99.90;;;;;;5051217;28;20068;-81
2021/08/28 04:19:36;;;;;;;2.67;1.65;;;15.20;99.90;;;;;;5039687;28;19929;-79
2021/08/28 04:22:09;;;;;;;;;;;15.30;99.90;;;;;;5040055;28;20059;-81
2021/08/28 04:24:35;;;;;;;10.10;2.03;;;15.30;99.90;;;;;;5086251;28;19917;-82
2021/08/28 04:27:03;;;;;;;3.92;2.08;;;15.30;99.90;;;;;;5090442;28;20047;-80
2021/08/28 04:29:34;;;;;;;2.00;1.33;;;15.40;99.90;;;;;;5062293;28;20051;-83
2021/08/28 04:32:06;;;;;;;2.45;1.55;;;15.40;99.90;;;;;;5077100;28;20410;-80
2021/08/28 04:34:37;;;;;;;3.25;2.08;;;15.40;99.90;;;;;;5050743;28;20460;-80
2021/08/28 04:37:13;;;;;;;4.43;1.83;;;15.30;99.90;;;;;;5039837;28;20421;-83
2021/08/28 04:39:39;;;;;;;4.82;2.33;;;15.20;99.90;;;;;;5068277;28;20041;-84
2021/08/28 04:42:05;;;;;;;;;;;15.20;99.90;;;;;;5035361;28;20041;-81
2021/08/28 04:44:30;;;;;;;6.65;2.03;;;15.20;99.90;;;;;;5078659;28;19917;-83
2021/08/28 04:46:56;;;;;;;2.17;1.67;;;15.10;99.90;;;;;;5031946;28;20067;-83
2021/08/28 04:49:22;;;;;;;2.38;1.42;;;15.20;99.90;;;;;;5033457;28;20127;-79
2021/08/28 04:51:47;;;;;;;;;;;15.20;99.90;;;;;;5052078;28;20075;-79
2021/08/28 04:54:13;;;;;;;2.53;1.92;;;15.20;99.90;;;;;;5053112;28;20393;-82
2021/08/28 04:56:39;;;;;;;4.03;1.83;;;15.20;99.90;;;;;;5067905;28;20095;-81
2021/08/28 04:59:05;;;;;;;3.45;2.92;;;15.20;99.90;;;;;;5032462;28;20433;-80
2021/08/28 05:01:30;;;;;;;2.25;1.95;;;15.30;99.90;;;;;;5043365;28;20047;-80
2021/08/28 05:03:56;;;;;;;4.63;2.65;;;15.30;99.90;;;;;;5050442;28;20044;-79
2021/08/28 05:06:23;;;;;;;1.67;1.42;;;15.30;99.90;;;;;;5033622;28;20059;-78
2021/08/28 05:08:49;;;;;;;6.18;2.53;;;15.30;99.90;;;;;;5039898;28;20473;-81
2021/08/28 05:11:14;;;;;;;2.13;1.70;;;15.30;99.90;;;;;;5055346;28;20049;-80
2021/08/28 05:13:41;;;;;;;6.00;1.77;;;15.40;99.90;;;;;;5048121;28;20048;-81
2021/08/28 05:16:07;;;;;;;3.22;2.58;;;15.40;99.90;;;;;;5044798;28;20036;-82
2021/08/28 05:18:40;;;;;;;3.45;1.73;;;15.40;99.90;;;;;;5050724;28;20048;-81
2021/08/28 05:21:05;;;;;;;4.68;2.20;;;15.40;99.90;;;;;;5093833;28;20051;-79
2021/08/28 05:23:31;;;;;;;2.97;2.13;;;15.50;99.90;;;;;;5045285;28;20045;-81
2021/08/28 05:25:57;;;;;;;4.05;2.00;;;15.50;99.90;;;;;;5044656;28;20041;-81
2021/08/28 05:28:23;;;;;;;;;;;15.60;99.90;;;;;;5032163;28;20045;-79
2021/08/28 05:30:48;;;;;;;3.10;1.73;;;15.50;99.90;;;;;;5052030;28;19927;-80
2021/08/28 05:33:14;;;;;;;;;;;15.60;99.90;;;;;;5051804;28;20620;-81
2021/08/28 05:35:41;;;;;;;4.85;2.38;;;15.60;99.90;;;;;;5068166;28;19921;-82
2021/08/28 05:38:08;;;;;;;2.15;1.42;;;15.60;99.90;;;;;;5054759;28;20076;-82
2021/08/28 05:40:34;;;;;;;3.35;1.45;;;15.60;99.90;;;;;;5047967;28;20068;-80
2021/08/28 05:43:00;;;;;;;3.10;2.33;;;15.70;99.90;;;;;;5043138;28;20448;-79
2021/08/28 05:45:25;;;;;;;3.13;1.85;;;15.70;99.90;;;;;;5054859;28;20045;-80
2021/08/28 05:47:51;;;;;;;;;;;15.70;99.90;;;;;;5037292;28;20132;-80
2021/08/28 05:50:17;;;;;;;6.72;2.30;;;15.70;99.90;;;;;;5053257;28;20346;-78
2021/08/28 05:52:45;;;;;;;3.67;1.63;;;15.70;99.90;;;;;;5027534;28;20048;-79
2021/08/28 05:55:13;;;;;;;2.17;1.58;;;15.80;99.90;;;;;;5031587;28;20049;-79
2021/08/28 05:57:39;;;;;;;2.63;2.10;;;15.80;99.90;;;;;;5044190;28;20095;-81
2021/08/28 06:00:05;;;;;;;;;;;15.90;99.90;;;;;;5038363;28;20032;-80
2021/08/28 06:02:32;;;;;;;2.40;2.10;;;16.00;99.90;;;;;;5067179;28;19985;-78
2021/08/28 06:04:57;;;;;;;3.42;1.65;;;16.00;99.90;;;;;;5063579;28;20502;-81
2021/08/28 06:07:23;;;;;;;;;;;16.10;99.90;;;;;;5034153;28;20041;-80
2021/08/28 06:09:49;;;;;;;3.70;1.70;;;16.10;99.90;;;;;;5038065;28;20054;-83
2021/08/28 06:12:15;;;;;;;2.67;1.83;;;16.10;99.90;;;;;;5053758;28;20041;-82
2021/08/28 06:14:41;;;;;;;4.43;2.22;;;16.10;99.90;;;;;;5046912;28;20036;-79
2021/08/28 06:17:06;;;;;;;8.13;1.85;;;16.20;99.90;;;;;;5031475;28;20052;-81
2021/08/28 06:19:32;;;;;;;3.05;1.88;;;16.20;99.90;;;;;;5033133;28;20395;-77
2021/08/28 06:22:00;;;;;;;6.13;2.20;;;16.20;99.90;;;;;;5053019;28;20044;-79
2021/08/28 06:24:25;;;;;;;2.75;1.75;;;16.20;99.90;;;;;;5056806;28;20043;-82
2021/08/28 06:26:51;;;;;;;3.15;1.83;;;16.20;99.90;;;;;;5054111;28;20127;-82
2021/08/28 06:29:16;;;;;;;;;;;16.20;99.90;;;;;;5055982;28;20486;-84
2021/08/28 06:31:42;;;;;;;4.43;2.38;;;16.20;99.90;;;;;;5054273;28;19924;-79
2021/08/28 06:34:08;;;;;;;;;;;16.20;99.90;;;;;;5033435;28;20060;-82
2021/08/28 06:36:34;;;;;;;3.05;1.90;;;16.20;99.90;;;;;;5083729;28;19958;-81
2021/08/28 06:39:00;;;;;;;3.67;2.03;;;16.10;99.90;;;;;;5049336;28;20072;-80
2021/08/28 06:41:27;;;;;;;4.22;1.98;;;16.20;99.90;;;;;;5024480;28;20045;-80
2021/08/28 06:43:52;;;;;;;2.40;1.13;;;16.20;99.90;;;;;;5071014;28;20417;-85
2021/08/28 06:46:18;;;;;;;2.63;1.45;;;16.10;99.90;;;;;;5053749;28;20097;-81
2021/08/28 06:48:44;;;;;;;1.40;1.27;;;16.10;99.90;;;;;;5036262;28;20056;-80
2021/08/28 06:51:10;;;;;;;2.60;1.30;;;16.10;99.90;;;;;;5053927;28;20501;-82
2021/08/28 06:53:36;;;;;;;2.50;1.60;;;16.10;99.90;;;;;;5053858;28;20041;-80
2021/08/28 06:56:01;;;;;;;;;;;16.10;99.90;;;;;;5002042;28;20502;-80
2021/08/28 06:58:27;;;;;;;2.10;1.33;;;16.10;99.90;;;;;;5037356;28;20321;-83
2021/08/28 07:00:54;;;;;;;;;;;16.10;99.90;;;;;;5054495;28;20043;-84
2021/08/28 07:03:20;;;;;;;3.27;1.90;;;16.10;99.90;;;;;;5053330;28;20013;-85
2021/08/28 07:05:45;;;;;;;1.40;1.05;;;16.20;99.90;;;;;;5060036;28;20311;-80
2021/08/28 07:08:13;;;;;;;3.17;1.50;;;16.10;99.90;;;;;;5062256;28;20036;-80
2021/08/28 07:10:39;;;;;;;2.80;1.42;;;16.20;99.90;;;;;;5093366;28;20045;-79
2021/08/28 07:13:05;;;;;;;1.98;1.00;;;16.20;99.90;;;;;;5027225;28;20041;-82
2021/08/28 07:15:31;;;;;;;1.35;1.25;;;16.30;99.90;;;;;;5038754;28;20053;-83
2021/08/28 07:17:57;;;;;;;6.88;2.17;;;16.30;99.90;;;;;;5019571;28;20029;-82
2021/08/28 07:20:22;;;;;;;2.42;1.35;;;16.40;99.90;;;;;;5039895;28;20040;-82
2021/08/28 07:22:48;;;;;;;;;;;16.50;99.90;;;;;;5041857;28;20646;-84
2021/08/28 07:25:14;;;;;;;4.60;1.50;;;16.50;99.90;;;;;;5038490;28;19923;-84
2021/08/28 07:27:39;;;;;;;;;;;16.60;99.90;;;;;;5056304;28;20668;-81
2021/08/28 07:30:06;;;;;;;2.10;1.40;;;16.70;99.90;;;;;;5051524;28;19917;-81
2021/08/28 07:32:31;;;;;;;4.57;1.45;;;16.70;99.90;;;;;;5053839;28;20508;-81
2021/08/28 07:34:58;;;;;;;2.45;1.70;;;16.70;99.90;;;;;;5055262;28;20045;-83
2021/08/28 07:37:23;;;;;;;;;;;16.70;99.90;;;;;;5069223;28;20040;-83
2021/08/28 07:39:49;;;;;;;1.88;1.02;;;16.70;99.90;;;;;;5054219;28;20015;-81
2021/08/28 07:42:15;;;;;;;;;;;16.70;99.90;;;;;;5056775;28;20357;-80
2021/08/28 07:44:41;;;;;;;1.92;0.88;;;16.60;99.90;;;;;;5074108;28;20432;-81
2021/08/28 07:47:06;;;;;;;;;;;16.70;99.90;;;;;;5038335;28;20044;-81
2021/08/28 07:49:32;;;;;;;1.35;0.98;;;16.70;99.90;;;;;;5056254;28;19952;-84
2021/08/28 07:51:57;;;;;;;;;;;17.00;99.90;;;;;;5059006;28;20478;-82
2021/08/28 07:54:23;;;;;;;3.45;1.13;;;17.20;99.90;;;;;;5054876;28;19917;-82
2021/08/28 07:56:49;;;;;;;;;;;17.50;99.90;;;;;;5034442;28;20102;-82
2021/08/28 07:59:14;;;;;;;1.63;1.35;;;17.70;99.90;;;;;;5068701;28;19917;-81
2021/08/28 08:01:40;;;;;;;;;;;17.70;99.90;;;;;;5035016;28;20041;-81
2021/08/28 08:04:06;;;;;;;6.28;1.80;;;17.70;99.90;;;;;;5085027;28;19964;-82
2021/08/28 08:06:31;;;;;;;;;;;17.70;99.90;;;;;;5055932;28;20054;-80
2021/08/28 08:08:57;;;;;;;2.25;1.60;;;17.70;99.90;;;;;;5043206;28;20042;-80
2021/08/28 08:11:23;;;;;;;;;;;17.70;99.90;;;;;;5039545;28;20040;-79
2021/08/28 08:13:48;;;;;;;2.60;1.35;;;17.60;99.90;;;;;;5062000;28;20012;-82
2021/08/28 08:16:14;;;;;;;;;;;17.40;99.90;;;;;;5040379;28;20033;-81
2021/08/28 08:18:40;;;;;;;2.35;1.35;;;17.30;99.90;;;;;;5043245;28;20309;-81
2021/08/28 08:21:06;;;;;;;3.08;0.95;;;17.30;99.90;;;;;;5054133;28;20494;-81
2021/08/28 08:23:32;;;;;;;;;;;17.20;99.90;;;;;;5043873;28;20635;-79
2021/08/28 08:25:57;;;;;;;1.17;0.88;;;17.20;99.90;;;;;;5075046;28;19917;-79
2021/08/28 08:28:23;;;;;;;1.83;1.10;;;17.10;99.90;;;;;;5061313;28;20051;-78
2021/08/28 08:30:49;;;;;;;;;;;17.10;99.90;;;;;;5061817;28;20056;-80
2021/08/28 08:33:15;;;;;;;1.63;1.05;;;17.20;99.90;;;;;;5050842;28;19921;-84
2021/08/28 08:35:40;;;;;;;;;;;17.20;99.90;;;;;;5019787;28;20368;-78
2021/08/28 08:38:06;;;;;;;1.40;1.10;;;17.20;99.90;;;;;;5033666;28;19917;-80
2021/08/28 08:40:32;;;;;;;;;;;17.10;99.90;;;;;;5053307;28;20439;-81
2021/08/28 08:43:03;;;;;;;0.93;0.70;;;17.10;99.90;;;;;;5052066;28;19939;-82
2021/08/28 08:45:29;;;;;;;1.05;0.93;;;17.10;99.90;;;;;;5045246;28;20182;-82
2021/08/28 08:47:56;;;;;;;1.15;1.05;;;17.10;99.90;;;;;;5048603;28;20123;-82
2021/08/28 08:50:23;;;;;;;2.08;1.55;;;17.20;99.90;;;;;;5056866;28;20032;-80
2021/08/28 08:52:53;;;;;;;1.63;1.05;;;17.50;99.90;;;;;;5046313;28;20049;-80
2021/08/28 08:55:19;;;;;;;1.45;0.75;;;17.60;99.90;;;;;;5085526;28;20118;-78
2021/08/28 08:57:45;;;;;;;;;;;17.70;99.90;;;;;;5049762;28;20037;-81
2021/08/28 09:00:13;;;;;;;1.17;0.90;;;17.60;99.90;;;;;;5050185;28;20010;-81
2021/08/28 09:02:38;;;;;;;0.98;0.90;;;17.60;99.90;;;;;;5034886;28;20132;-81
2021/08/28 09:05:04;;;;;;;;;;;17.80;99.90;;;;;;5065827;28;20075;-80
2021/08/28 09:07:31;;;;;;;0.88;0.88;;;18.00;99.90;;;;;;5058667;28;20370;-79
2021/08/28 09:09:56;;;;;;;1.15;0.82;;;18.30;99.90;;;;;;5071925;28;20036;-82
2021/08/28 09:12:22;;;;;;;;;;;18.50;99.90;;;;;;5067398;28;20100;-81
2021/08/28 09:14:57;;;;;;;1.67;1.33;;;18.60;99.90;;;;;;5021624;28;19923;-80
2021/08/28 09:17:23;;;;;;;0.52;0.52;;;18.60;99.90;;;;;;5056620;28;20049;-82
2021/08/28 09:19:49;;;;;;;;;;;18.50;99.90;;;;;;5067179;28;20448;-82
2021/08/28 09:22:33;;;;;;;5.50;1.13;;;18.40;99.90;;;;;;5060164;28;19923;-85
2021/08/28 09:25:05;;;;;;;0.75;0.75;;;18.30;99.90;;;;;;5026372;28;20056;-81
2021/08/28 09:27:32;;;;;;;0.88;0.73;;;18.40;99.90;;;;;;5055312;28;20032;-83
2021/08/28 09:29:58;;;;;;;0.77;0.60;;;18.70;99.90;;;;;;5036934;28;20037;-82
2021/08/28 09:32:24;;;;;;;0.73;0.57;;;18.90;99.90;;;;;;5037865;28;20045;-82
2021/08/28 09:34:49;;;;;;;;;;;19.30;99.90;;;;;;5045615;28;20452;-81
2021/08/28 09:37:15;;;;;;;1.33;0.93;;;19.10;99.90;;;;;;5055733;28;19935;-80
2021/08/28 09:39:42;;;;;;;;;;;19.10;99.90;;;;;;5071036;28;20139;-80
2021/08/28 09:42:10;;;;;;;0.98;0.70;;;19.10;99.90;;;;;;5064595;28;19934;-82
2021/08/28 09:44:41;;;;;;;1.10;0.88;;;19.00;99.90;;;;;;5057954;28;20044;-81
2021/08/28 09:47:31;;;;;;;0.73;0.70;;;18.90;99.90;;;;;;5033073;28;20041;-81
2021/08/28 09:49:57;;;;;;;0.88;0.82;;;18.70;99.90;;;;;;5055984;28;20465;-83
2021/08/28 09:52:27;;;;;;;;;;;18.40;99.90;;;;;;5055842;28;20049;-82
2021/08/28 09:54:56;;;;;;;0.93;0.80;;;18.30;99.90;;;;;;5054413;28;20413;-79
2021/08/28 09:57:28;;;;;;;0.75;0.75;;;18.30;99.90;;;;;;5046152;28;20091;-80
2021/08/28 10:00:00;;;;;;;0.52;0.52;;;18.20;99.90;;;;;;5047479;28;20055;-79
2021/08/28 10:02:26;;;;;;;0.93;0.88;;;18.20;99.90;;;;;;5062459;28;20119;-82
2021/08/28 10:04:59;;;;;;;3.65;0.73;;;18.20;99.90;;;;;;5048102;28;20037;-83
2021/08/28 10:07:30;;;;;;;0.63;0.63;;;18.30;99.90;;;;;;5051548;28;20052;-82
2021/08/28 10:09:56;;;;;;;0.65;0.60;;;18.30;99.90;;;;;;5045597;28;20128;-82
2021/08/28 10:12:23;;;;;;;0.88;0.70;;;18.40;99.90;;;;;;5050582;28;20041;-82
2021/08/28 10:14:51;;;;;;;0.73;0.63;;;18.50;99.90;;;;;;5054080;28;20087;-83
2021/08/28 10:17:18;;;;;;;1.65;0.93;;;18.60;99.90;;;;;;5050228;28;20359;-82
2021/08/28 10:19:48;;;;;;;0.70;0.70;;;18.70;99.90;;;;;;5083217;28;20044;-83
2021/08/28 10:22:19;;;;;;;0.95;0.65;;;18.70;99.90;;;;;;5062677;28;20111;-84
2021/08/28 10:24:46;;;;;;;0.93;0.88;;;18.80;99.90;;;;;;5057087;28;20044;-82
2021/08/28 10:27:12;;;;;;;0.93;0.70;;;18.80;99.90;;;;;;5054093;28;20045;-82
2021/08/28 10:29:38;;;;;;;0.88;0.60;;;18.70;99.90;;;;;;5057599;28;20112;-83
2021/08/28 10:32:05;;;;;;;1.25;0.90;;;18.70;99.90;;;;;;5048939;28;20120;-84
2021/08/28 10:34:32;;;;;;;1.25;0.75;;;18.70;99.90;;;;;;5018150;28;20111;-83
2021/08/28 10:36:59;;;;;;;0.45;0.45;;;18.80;99.90;;;;;;5033095;28;20681;-80
2021/08/28 10:39:25;;;;;;;0.70;0.70;;;18.90;99.90;;;;;;5055666;28;20036;-78
2021/08/28 10:41:53;;;;;;;0.93;0.82;;;18.90;99.90;;;;;;5070190;28;20405;-85
2021/08/28 10:44:19;;;;;;;1.15;0.90;;;19.00;99.90;;;;;;5052886;28;20518;-83
2021/08/28 10:46:44;;;;;;;;;;;19.00;99.90;;;;;;5061796;28;20129;-80
2021/08/28 10:49:12;;;;;;;4.05;0.70;;;19.10;99.90;;;;;;5069735;28;19916;-80
2021/08/28 10:51:40;;;;;;;0.68;0.52;;;19.10;99.90;;;;;;5054748;28;20048;-80
2021/08/28 10:54:11;;;;;;;0.60;0.43;;;19.10;99.90;;;;;;5049988;28;20044;-81
2021/08/28 10:56:54;;;;;;;2.10;0.88;;;19.00;99.90;;;;;;5058728;28;20072;-81
2021/08/28 10:59:32;;;;;;;2.47;0.90;;;19.20;99.90;;;;;;5085916;28;20040;-79
2021/08/28 11:02:09;;;;;;;1.45;1.02;;;19.30;99.90;;;;;;5051806;28;20040;-81
2021/08/28 11:04:45;;;;;;;0.98;0.75;;;19.40;99.90;;;;;;5042428;28;20095;-80
2021/08/28 11:07:20;;;;;;;;;;;19.30;99.90;;;;;;5048675;28;20052;-77
2021/08/28 11:10:07;;;;;;;0.57;0.57;;;19.40;99.90;;;;;;5050977;28;19916;-81
2021/08/28 11:12:56;;;;;;;2.42;0.73;;;19.40;99.90;;;;;;5052142;28;20037;-81
2021/08/28 11:15:24;;;;;;;3.40;1.13;;;19.30;99.90;;;;;;5050056;28;20544;-81
2021/08/28 11:17:52;;;;;;;0.93;0.73;;;19.30;99.90;;;;;;5050188;28;20049;-81
2021/08/28 11:20:23;;;;;;;1.15;0.88;;;19.20;99.90;;;;;;5052222;28;20045;-79
2021/08/28 11:22:49;;;;;;;0.50;0.50;;;19.20;99.90;;;;;;5049508;28;20041;-79
2021/08/28 11:25:15;;;;;;;0.50;0.50;;;19.30;99.90;;;;;;5050965;28;20104;-81
2021/08/28 11:27:47;;;;;;;1.38;0.88;;;19.30;99.90;;;;;;5049316;28;20128;-80
2021/08/28 11:30:15;;;;;;;0.82;0.60;;;19.20;99.90;;;;;;5050306;28;20071;-79
2021/08/28 11:32:58;;;;;;;0.60;0.60;;;19.30;99.90;;;;;;5049593;28;20045;-81
2021/08/28 11:35:30;;;;;;;1.38;1.00;;;19.30;99.90;;;;;;5043509;28;20048;-82
2021/08/28 11:38:04;;;;;;;0.93;0.73;;;19.50;99.90;;;;;;5054646;28;20438;-79
2021/08/28 11:40:32;;;;;;;0.68;0.68;;;19.60;99.90;;;;;;5070285;28;20044;-81
2021/08/28 11:42:58;;;;;;;1.42;1.05;;;19.40;99.90;;;;;;5051290;28;20545;-79
2021/08/28 11:45:38;;;;;;;1.77;1.15;;;19.30;99.90;;;;;;5052063;28;20119;-81
2021/08/28 11:48:12;;;;;;;0.85;0.77;;;19.20;99.90;;;;;;5054133;28;20052;-80
2021/08/28 11:50:39;;;;;;;0.95;0.68;;;19.50;99.90;;;;;;5062922;28;20072;-79
2021/08/28 11:53:05;;;;;;;1.05;0.90;;;19.50;99.90;;;;;;5050440;28;20039;-80
2021/08/28 11:55:34;;;;;;;1.10;0.90;;;19.50;99.90;;;;;;5031446;28;20135;-78
2021/08/28 11:58:13;;;;;;;0.70;0.70;;;19.50;99.90;;;;;;5054085;28;20037;-80
2021/08/28 12:00:40;;;;;;;0.60;0.57;;;19.60;99.90;;;;;;5052472;28;20063;-80
2021/08/28 12:03:07;;;;;;;0.70;0.70;;;19.60;99.90;;;;;;5029298;28;20048;-79
2021/08/28 12:05:34;;;;;;;0.40;0.40;;;19.70;99.90;;;;;;5050830;28;20045;-79
2021/08/28 12:08:00;;;;;;;0.50;0.50;;;19.70;99.90;;;;;;5049062;28;20048;-81
2021/08/28 12:10:26;;;;;;;1.75;0.90;;;19.80;99.90;;;;;;5050102;28;20171;-79
2021/08/28 12:13:00;;;;;;;0.80;0.60;;;19.90;99.90;;;;;;5049238;28;20167;-79
2021/08/28 12:15:27;;;;;;;2.63;0.95;;;19.80;99.90;;;;;;5084920;28;20095;-78
2021/08/28 12:17:54;;;;;;;0.82;0.70;;;19.80;99.90;;;;;;5047254;28;20741;-78
2021/08/28 12:20:29;;;;;;;1.08;0.80;;;19.80;99.90;;;;;;5061576;28;20079;-79
2021/08/28 12:22:56;;;;;;;1.40;0.77;;;19.60;99.90;;;;;;5045394;28;20053;-82
2021/08/28 12:25:22;;;;;;;0.60;0.60;;;19.50;99.90;;;;;;5048982;28;20045;-78
2021/08/28 12:27:50;;;;;;;1.38;0.60;;;19.50;99.90;;;;;;5050246;28;20045;-77
2021/08/28 12:30:17;;;;;;;1.67;1.10;;;19.60;99.90;;;;;;5051505;28;20072;-78
2021/08/28 12:32:43;;;;;;;2.17;1.05;;;19.60;99.90;;;;;;5048274;28;20110;-77
2021/08/28 12:35:09;;;;;;;1.13;0.98;;;19.50;99.90;;;;;;5051702;28;20521;-77
2021/08/28 12:37:37;;;;;;;2.65;1.20;;;19.60;99.90;;;;;;5050029;28;20036;-78
2021/08/28 12:40:13;;;;;;;1.55;0.85;;;19.60;99.90;;;;;;5030800;28;20047;-80
2021/08/28 12:42:40;;;;;;;1.15;0.75;;;19.60;99.90;;;;;;5047688;28;20044;-80
2021/08/28 12:45:10;;;;;;;1.23;0.90;;;19.50;99.90;;;;;;5046561;28;20462;-79
2021/08/28 12:47:39;;;;;;;0.57;0.57;;;19.30;99.90;;;;;;5047024;28;20470;-80
2021/08/28 12:50:06;;;;;;;1.45;0.70;;;19.20;99.90;;;;;;5047265;28;20470;-79
2021/08/28 12:52:44;;;;;;;1.27;0.73;;;19.10;99.90;;;;;;5032968;28;20045;-80
2021/08/28 12:55:30;;;;;;;3.50;0.80;;;18.90;99.90;;;;;;5048403;28;20049;-82
2021/08/28 12:58:01;;;;;;;2.67;1.00;;;18.80;99.90;;;;;;5024502;28;20098;-80
2021/08/28 13:00:37;;;;;;;1.17;0.80;;;18.90;99.90;;;;;;5048945;28;20033;-81
2021/08/28 13:03:03;;;;;;;1.10;0.82;;;19.00;99.90;;;;;;5047400;28;20494;-81
2021/08/28 13:05:32;;;;;;;0.77;0.70;;;19.00;99.90;;;;;;5047675;28;20505;-79